Albert J Ellis Airport
KOAJ : now visible

Airfield :











YOU CAN JOIN US ON...

 
LOGIN :

Register | Disclaimer

   EN    FR    IT 

 









Legend :    VFR   Marginal VFR   IFR   Intensive IFR   Very Intensive IFR
Visi :
Ceiling :
>= 8 km
>= 3000ft
5 to 8 km
1000 to 3000 ft
1500m to 5 km
500 to 1000 ft
800 to 1500m
200 to 500 ft
< 800m
< 200 ft
Symbols :   Thunderstorms  Fog  Heavy snow  Heavy precipitations  Wind > 20 kt






- Airport Elevation : 94 ft


KOAJ - Albert J Ellis

CURRENT METAR :
  • 301056Z AUTO 34003KT 10SM -RA OVC006 12/12 A3018 RMK AO2 RAE06B34 SLP224 P0000 T01220122

EXPIRED METARs :
  • 301039Z AUTO 34003KT 9SM -RA OVC006 12/12 A3018 RMK AO2 RAE06B34 CIG 003V008 P0000
  • 301016Z AUTO 02004KT 10SM BKN004 OVC008 12/12 A3015 RMK AO2 RAE06 P0000
  • 300956Z AUTO 07003KT 10SM -RA BKN002 OVC016 12/12 A3013 RMK AO2 SLP206 P0002 T01220122
  • 300856Z AUTO 04004KT 5SM -RA BR BKN002 OVC022 12/12 A3015 RMK AO2 SLP211 P0003 60009 T01220117 56012
  • 300848Z AUTO 05005KT 4SM -RA BR FEW002 OVC022 12/12 A3015 RMK AO2 P0002
  • 300828Z AUTO 05004KT 5SM -RA BR FEW019 OVC028 12/12 A3016 RMK AO2 P0001

TAF KOAJ
Valid from the 30 at 06:00 until the 31 at 06:00 UTC


300553Z 3006/3106 00000KT 5SM -RA BR SCT005 OVC014
TEMPO 3007/3008 BKN005
FM300800 00000KT 2SM RA BR OVC005
FM301200 00000KT 3SM -RA BR OVC005
FM301700 VRB04KT P6SM OVC005
FM302000 VRB04KT P6SM OVC012 AMD LTD TO CLD VIS AND WIND
KZDC FIR / North America



MET'MAP, your aeronautical weather chart ! - Copyright ORBIFLY December 2007 - Disclaimer

ORBIFLY MET'MAP TEAM :

Programming & Development : Alexandra Zaïnal
Original concept : Baudouin d'Aumeries
Technical & hardware support : Manuel Goepfert
Assistance : Marc-Olivier Méhu




SOURCES & CREDITS :

   NOAA       Earth
Advisory